createdAt,value
2022-10-19T00:01:13.887Z,90.50
2022-10-19T00:03:41.574Z,90.50
2022-10-19T00:06:13.338Z,90.30
2022-10-19T00:08:40.681Z,90.20
2022-10-19T00:11:09.152Z,90.30
2022-10-19T00:13:36.544Z,91.10
2022-10-19T00:16:13.948Z,90.50
2022-10-19T00:18:43.610Z,90.10
2022-10-19T00:21:15.667Z,90.30
2022-10-19T00:23:44.632Z,90.80
2022-10-19T00:26:13.248Z,91.00
2022-10-19T00:28:42.176Z,91.40
2022-10-19T00:31:17.864Z,92.10
2022-10-19T00:33:49.192Z,92.10
2022-10-19T00:36:23.054Z,92.20
2022-10-19T00:38:51.644Z,92.50
2022-10-19T00:41:20.751Z,93.00
2022-10-19T00:44:02.190Z,93.50
2022-10-19T00:46:34.187Z,93.30
2022-10-19T00:49:22.222Z,93.50
2022-10-19T00:51:54.157Z,94.00
2022-10-19T00:54:22.494Z,93.80
2022-10-19T00:56:55.010Z,94.10
2022-10-19T00:59:25.809Z,94.60
2022-10-19T01:01:54.740Z,94.50
2022-10-19T01:04:24.765Z,94.70
2022-10-19T01:06:54.289Z,94.60
2022-10-19T01:09:21.785Z,94.70
2022-10-19T01:12:04.283Z,95.20
2022-10-19T01:15:02.513Z,95.30
2022-10-19T01:18:05.065Z,95.30
2022-10-19T01:20:59.843Z,95.50
2022-10-19T01:23:53.827Z,95.70
2022-10-19T01:26:44.798Z,96.10
2022-10-19T01:29:45.128Z,95.70
2022-10-19T01:32:25.813Z,95.90
2022-10-19T01:35:13.983Z,96.30
2022-10-19T01:38:21.912Z,96.70
2022-10-19T01:41:12.489Z,96.80
2022-10-19T01:44:02.128Z,97.00
2022-10-19T01:47:06.819Z,96.60
2022-10-19T01:49:49.630Z,96.60
2022-10-19T01:52:21.609Z,96.60
2022-10-19T01:54:53.911Z,96.50
2022-10-19T01:57:30.517Z,96.50
2022-10-19T01:59:58.512Z,96.30
2022-10-19T02:02:28.290Z,96.30
2022-10-19T02:04:58.102Z,96.20
2022-10-19T02:07:26.316Z,96.10
2022-10-19T02:09:53.686Z,96.00
2022-10-19T02:12:22.557Z,95.90
2022-10-19T02:14:58.163Z,95.80
2022-10-19T02:17:35.980Z,95.80
2022-10-19T02:20:04.161Z,95.80
2022-10-19T02:22:32.292Z,95.60
2022-10-19T02:25:00.310Z,95.70
2022-10-19T02:27:27.837Z,95.60
2022-10-19T02:29:55.711Z,95.60
2022-10-19T02:32:23.269Z,95.60
2022-10-19T02:34:50.703Z,95.60
2022-10-19T02:37:20.936Z,95.50
2022-10-19T02:39:50.696Z,95.60
2022-10-19T02:42:29.259Z,95.60
2022-10-19T02:45:05.556Z,95.50
2022-10-19T02:47:42.530Z,95.60
2022-10-19T02:50:11.538Z,95.50
2022-10-19T02:52:40.627Z,95.50
2022-10-19T02:55:09.113Z,95.50
2022-10-19T02:57:37.747Z,95.60
2022-10-19T03:00:09.556Z,96.00
2022-10-19T03:02:36.815Z,95.90
2022-10-19T03:05:05.085Z,96.00
2022-10-19T03:07:33.900Z,96.30
2022-10-19T03:10:04.103Z,96.40
2022-10-19T03:12:31.371Z,96.70
2022-10-19T03:14:58.744Z,96.70
2022-10-19T03:17:26.019Z,96.70
2022-10-19T03:19:53.907Z,96.80
2022-10-19T03:22:21.313Z,96.70
2022-10-19T03:24:48.648Z,96.70
2022-10-19T03:27:15.910Z,96.70
2022-10-19T03:29:43.423Z,96.60
2022-10-19T03:32:10.809Z,96.80
2022-10-19T03:34:38.169Z,96.80
2022-10-19T03:37:05.396Z,96.80
2022-10-19T03:39:32.818Z,96.90
2022-10-19T03:42:00.541Z,96.90
2022-10-19T03:44:27.884Z,97.00
2022-10-19T03:46:55.171Z,97.10
2022-10-19T03:49:22.584Z,97.10
2022-10-19T03:51:49.825Z,97.30
2022-10-19T03:54:17.695Z,97.60
2022-10-19T03:56:45.455Z,97.90
2022-10-19T03:59:15.936Z,97.70
2022-10-19T04:01:46.263Z,97.60
2022-10-19T04:04:18.148Z,97.60
2022-10-19T04:06:49.120Z,97.60
2022-10-19T04:09:19.987Z,97.90
2022-10-19T04:11:48.433Z,97.60
2022-10-19T04:14:27.083Z,97.60
2022-10-19T04:17:01.617Z,97.90
2022-10-19T04:19:29.039Z,98.30
2022-10-19T04:21:57.559Z,98.90
2022-10-19T04:24:25.863Z,99.30
2022-10-19T04:26:55.059Z,99.80
2022-10-19T04:29:27.900Z,99.40
2022-10-19T04:31:57.132Z,99.00
2022-10-19T04:34:24.459Z,99.00
2022-10-19T04:36:53.369Z,99.00
2022-10-19T04:39:20.715Z,98.60
2022-10-19T04:41:49.109Z,98.40
2022-10-19T04:44:16.271Z,99.00
2022-10-19T04:46:43.413Z,98.80
2022-10-19T04:49:10.536Z,99.00
2022-10-19T04:51:37.770Z,99.00
2022-10-19T04:54:05.041Z,98.80
2022-10-19T04:56:32.753Z,98.90
2022-10-19T04:59:00.852Z,98.80
2022-10-19T05:01:29.866Z,99.00
2022-10-19T05:03:59.568Z,99.40
2022-10-19T05:06:27.276Z,99.20
2022-10-19T05:08:54.752Z,99.20
2022-10-19T05:11:22.199Z,99.20
2022-10-19T05:13:49.639Z,99.00
2022-10-19T05:16:19.582Z,98.90
2022-10-19T05:18:50.044Z,98.70
2022-10-19T05:21:18.187Z,98.60
2022-10-19T05:23:45.768Z,98.50
2022-10-19T05:26:16.641Z,98.20
2022-10-19T05:28:57.839Z,98.10
2022-10-19T05:31:29.595Z,98.00
2022-10-19T05:33:57.398Z,97.50
2022-10-19T05:36:35.011Z,97.60
2022-10-19T05:39:12.742Z,97.60
2022-10-19T05:41:41.948Z,97.20
2022-10-19T05:44:19.076Z,97.00
2022-10-19T05:46:47.137Z,96.80
2022-10-19T05:49:20.078Z,96.50
2022-10-19T05:51:48.339Z,96.20
2022-10-19T05:54:23.840Z,96.00
2022-10-19T05:56:54.838Z,95.70
2022-10-19T05:59:26.440Z,95.60
2022-10-19T06:01:55.402Z,95.40
2022-10-19T06:04:22.784Z,95.20
2022-10-19T06:06:50.214Z,95.10
2022-10-19T06:09:19.407Z,93.90
2022-10-19T06:11:48.196Z,92.70
2022-10-19T06:14:16.591Z,91.30
2022-10-19T06:16:46.079Z,90.40
2022-10-19T06:19:13.686Z,89.30
2022-10-19T06:21:43.395Z,87.30
2022-10-19T06:24:13.357Z,86.30
2022-10-19T06:26:40.658Z,84.50
2022-10-19T06:29:10.457Z,83.80
2022-10-19T06:31:38.673Z,83.10
2022-10-19T06:34:06.294Z,82.50
2022-10-19T06:36:34.633Z,81.60
2022-10-19T06:39:02.079Z,80.40
2022-10-19T06:41:31.444Z,80.00
2022-10-19T06:43:59.198Z,80.10
2022-10-19T06:46:27.510Z,80.30
2022-10-19T06:49:00.323Z,80.30
2022-10-19T06:51:30.873Z,80.20
2022-10-19T06:53:58.367Z,80.40
2022-10-19T06:56:26.726Z,80.20
2022-10-19T06:58:55.377Z,80.00
2022-10-19T07:01:23.314Z,80.60
2022-10-19T07:03:56.011Z,80.70
2022-10-19T07:06:24.641Z,80.90
2022-10-19T07:08:53.555Z,80.60
2022-10-19T07:11:22.751Z,79.50
2022-10-19T07:13:50.651Z,78.40
2022-10-19T07:16:21.460Z,77.40
2022-10-19T07:18:52.259Z,77.40
2022-10-19T07:21:23.637Z,78.00
2022-10-19T07:23:51.320Z,78.10
2022-10-19T07:26:24.036Z,78.40
2022-10-19T07:28:51.747Z,78.40
2022-10-19T07:31:21.935Z,78.50
2022-10-19T07:33:56.577Z,77.60
2022-10-19T07:36:25.508Z,77.50
2022-10-19T07:38:53.730Z,77.20
2022-10-19T07:41:25.328Z,76.70
2022-10-19T07:43:53.902Z,76.60
2022-10-19T07:46:35.859Z,76.30
2022-10-19T07:49:11.005Z,76.10
2022-10-19T07:51:39.245Z,76.40
2022-10-19T07:54:07.723Z,76.30
2022-10-19T07:56:35.684Z,76.70
2022-10-19T07:59:05.049Z,76.60
2022-10-19T08:01:38.000Z,76.50
2022-10-19T08:06:53.699Z,76.50
2022-10-19T08:09:50.822Z,76.60
2022-10-19T08:12:13.827Z,76.50
2022-10-19T08:14:41.963Z,76.40
2022-10-19T08:17:12.039Z,75.70
2022-10-19T08:19:43.498Z,75.50
2022-10-19T08:22:11.602Z,75.00
2022-10-19T08:24:39.175Z,75.30
2022-10-19T08:27:06.570Z,75.70
2022-10-19T08:29:33.975Z,75.60
2022-10-19T08:32:01.251Z,75.60
2022-10-19T08:34:28.456Z,75.60
2022-10-19T08:36:55.726Z,75.00
2022-10-19T08:39:23.135Z,73.70
2022-10-19T08:42:23.696Z,73.50
2022-10-19T08:45:12.520Z,73.40
2022-10-19T08:47:59.871Z,73.20
2022-10-19T08:50:37.793Z,73.80
2022-10-19T08:53:13.305Z,73.90
2022-10-19T08:56:38.787Z,74.10
2022-10-19T08:59:31.080Z,73.70
2022-10-19T09:02:29.292Z,73.10
2022-10-19T09:05:12.829Z,72.80
2022-10-19T09:07:45.957Z,72.00
2022-10-19T09:10:24.433Z,72.00
2022-10-19T09:13:03.351Z,72.00
2022-10-19T09:15:45.657Z,72.10
2022-10-19T09:18:25.588Z,71.50
2022-10-19T09:21:42.656Z,70.90
2022-10-19T09:24:45.550Z,70.40
2022-10-19T09:27:26.920Z,70.30
2022-10-19T09:30:15.565Z,69.30
2022-10-19T09:32:44.256Z,69.10
2022-10-19T09:35:30.913Z,68.80
2022-10-19T09:37:59.841Z,68.60
2022-10-19T09:40:30.646Z,68.60
2022-10-19T09:42:59.724Z,67.00
2022-10-19T09:45:39.541Z,66.90
2022-10-19T09:48:23.639Z,66.30
2022-10-19T09:51:13.016Z,65.60
2022-10-19T09:53:51.058Z,63.90
2022-10-19T09:56:25.281Z,62.80
2022-10-19T09:58:57.577Z,62.60
2022-10-19T10:01:41.980Z,62.20
2022-10-19T10:04:16.965Z,61.90
2022-10-19T10:06:48.096Z,62.10
2022-10-19T10:09:41.327Z,61.90
2022-10-19T10:12:09.769Z,62.10
2022-10-19T10:14:39.899Z,61.60
2022-10-19T10:17:16.919Z,61.30
2022-10-19T10:20:00.558Z,60.70
2022-10-19T10:22:33.953Z,60.40
2022-10-19T10:25:02.564Z,60.00
2022-10-19T10:27:37.750Z,59.20
2022-10-19T10:30:16.845Z,58.40
2022-10-19T10:32:51.439Z,57.80
2022-10-19T10:35:36.206Z,57.00
2022-10-19T10:38:15.115Z,56.50
2022-10-19T10:40:53.222Z,56.20
2022-10-19T10:43:32.629Z,56.10
2022-10-19T10:46:19.927Z,56.80
2022-10-19T10:48:57.668Z,57.00
2022-10-19T10:51:53.036Z,57.50
2022-10-19T10:54:31.643Z,58.00
2022-10-19T10:57:09.770Z,58.60
2022-10-19T10:59:44.762Z,58.80
2022-10-19T11:02:40.744Z,59.00
2022-10-19T11:05:27.414Z,59.30
2022-10-19T11:08:29.204Z,59.60
2022-10-19T11:11:06.824Z,59.70
2022-10-19T11:13:59.190Z,60.00
2022-10-19T11:16:45.969Z,59.20
2022-10-19T11:19:19.890Z,58.00
2022-10-19T11:22:03.080Z,57.50
2022-10-19T11:24:48.656Z,57.40
2022-10-19T11:27:57.723Z,56.80
2022-10-19T11:30:27.130Z,56.70
2022-10-19T11:33:23.372Z,56.20
2022-10-19T11:36:04.208Z,56.00
2022-10-19T11:39:05.792Z,55.00
2022-10-19T11:42:08.886Z,54.80
2022-10-19T11:44:58.475Z,54.10
2022-10-19T11:48:00.033Z,54.20
2022-10-19T11:50:58.901Z,53.60
2022-10-19T11:54:17.084Z,53.40
2022-10-19T11:57:24.324Z,53.60
2022-10-19T12:00:15.128Z,54.00
2022-10-19T12:03:44.488Z,53.60
2022-10-19T12:06:41.543Z,53.60
2022-10-19T12:09:50.901Z,53.80
2022-10-19T12:12:43.221Z,53.50
2022-10-19T12:15:35.317Z,53.40
2022-10-19T12:18:15.271Z,53.90
2022-10-19T12:20:51.407Z,54.10
2022-10-19T12:23:37.628Z,54.30
2022-10-19T12:26:11.732Z,54.40
2022-10-19T12:28:46.506Z,54.10
2022-10-19T12:31:15.472Z,54.40
2022-10-19T12:34:21.151Z,54.50
2022-10-19T12:37:10.351Z,54.50
2022-10-19T12:39:57.697Z,54.60
2022-10-19T12:43:18.746Z,53.90
2022-10-19T12:46:24.295Z,53.80
2022-10-19T12:49:26.756Z,54.20
2022-10-19T12:51:57.084Z,54.00
2022-10-19T12:54:28.030Z,54.10
2022-10-19T12:57:00.000Z,54.00
2022-10-19T12:59:37.268Z,54.30
2022-10-19T13:02:27.349Z,54.60
2022-10-19T13:04:55.138Z,54.60
2022-10-19T13:07:26.375Z,55.10
2022-10-19T13:10:04.136Z,55.60
2022-10-19T13:12:46.834Z,55.70
2022-10-19T13:15:36.045Z,56.10
2022-10-19T13:18:17.041Z,55.90
2022-10-19T13:20:54.174Z,56.10
2022-10-19T13:23:38.721Z,56.10
2022-10-19T13:26:35.197Z,55.70
2022-10-19T13:29:02.914Z,55.50
2022-10-19T13:31:34.177Z,54.60
2022-10-19T13:34:10.632Z,54.50
2022-10-19T13:36:40.313Z,54.70
2022-10-19T13:39:14.709Z,54.50
2022-10-19T13:41:51.924Z,54.90
2022-10-19T13:44:30.963Z,54.30
2022-10-19T13:47:25.189Z,54.30
2022-10-19T13:50:19.564Z,54.40
2022-10-19T13:53:29.088Z,54.00
2022-10-19T13:56:00.597Z,53.90
2022-10-19T13:59:02.859Z,53.60
2022-10-19T14:01:53.402Z,54.20
2022-10-19T14:04:50.615Z,54.10
2022-10-19T14:07:39.864Z,54.50
2022-10-19T14:10:25.182Z,54.70
2022-10-19T14:13:02.748Z,54.50
2022-10-19T14:15:35.197Z,53.90
2022-10-19T14:18:05.818Z,53.30
2022-10-19T14:20:37.632Z,53.20
2022-10-19T14:23:31.949Z,53.10
2022-10-19T14:26:10.588Z,53.70
2022-10-19T14:28:43.178Z,53.20
2022-10-19T14:31:20.802Z,53.30
2022-10-19T14:33:57.000Z,53.40
2022-10-19T14:36:32.034Z,53.60
2022-10-19T14:39:00.821Z,53.40
2022-10-19T14:41:30.738Z,52.80
2022-10-19T14:44:00.383Z,52.80
2022-10-19T14:46:35.972Z,52.60
2022-10-19T14:49:08.239Z,53.00
2022-10-19T14:52:01.939Z,53.30
2022-10-19T14:54:41.495Z,52.80
2022-10-19T14:57:17.666Z,52.80
2022-10-19T14:59:53.012Z,52.70
2022-10-19T15:02:49.812Z,53.00
2022-10-19T15:05:29.357Z,53.70
2022-10-19T15:07:57.358Z,53.30
2022-10-19T15:10:57.085Z,53.40
2022-10-19T15:13:40.169Z,53.40
2022-10-19T15:16:33.482Z,52.70
2022-10-19T15:19:28.934Z,52.70
2022-10-19T15:22:14.591Z,52.10
2022-10-19T15:25:07.324Z,52.40
2022-10-19T15:27:43.683Z,52.00
2022-10-19T15:30:31.663Z,51.90
2022-10-19T15:33:01.979Z,51.80
2022-10-19T15:35:33.715Z,51.90
2022-10-19T15:38:29.114Z,52.20
2022-10-19T15:41:00.920Z,52.20
2022-10-19T15:43:34.958Z,52.20
2022-10-19T15:46:22.130Z,51.90
2022-10-19T15:48:56.777Z,51.70
2022-10-19T15:51:35.061Z,52.20
2022-10-19T15:54:08.133Z,52.20
2022-10-19T15:56:40.121Z,52.30
2022-10-19T15:59:18.753Z,52.60
2022-10-19T16:01:55.018Z,52.80
2022-10-19T16:04:23.792Z,52.40
2022-10-19T16:06:52.698Z,52.50
2022-10-19T16:09:22.711Z,52.60
2022-10-19T16:11:56.831Z,52.40
2022-10-19T16:14:26.719Z,52.40
2022-10-19T16:16:55.962Z,52.40
2022-10-19T16:19:24.841Z,52.30
2022-10-19T16:21:52.578Z,52.30
2022-10-19T16:24:19.869Z,52.70
2022-10-19T16:26:48.603Z,52.90
2022-10-19T16:29:16.017Z,53.30
2022-10-19T16:31:44.303Z,52.60
2022-10-19T16:34:11.547Z,52.60
2022-10-19T16:36:38.904Z,52.80
2022-10-19T16:39:06.446Z,53.20
2022-10-19T16:41:34.006Z,53.40
2022-10-19T16:44:02.803Z,53.70
2022-10-19T16:46:30.059Z,52.90
2022-10-19T16:48:57.627Z,52.50
2022-10-19T16:51:39.509Z,52.60
2022-10-19T16:54:09.892Z,52.60
2022-10-19T16:56:43.283Z,52.90
2022-10-19T16:59:16.965Z,53.80
2022-10-19T17:01:46.294Z,53.30
2022-10-19T17:04:15.788Z,52.50
2022-10-19T17:06:44.655Z,53.40
2022-10-19T17:12:01.972Z,52.60
2022-10-19T17:14:29.284Z,52.40
2022-10-19T17:16:56.581Z,52.40
2022-10-19T17:19:24.130Z,52.70
2022-10-19T17:21:54.462Z,52.80
2022-10-19T17:24:24.241Z,53.00
2022-10-19T17:26:53.082Z,53.10
2022-10-19T17:29:21.951Z,52.80
2022-10-19T17:31:50.378Z,52.80
2022-10-19T17:34:18.505Z,53.00
2022-10-19T17:36:48.835Z,53.20
2022-10-19T17:39:29.182Z,53.20
2022-10-19T17:42:01.905Z,53.30
2022-10-19T17:44:31.472Z,53.30
2022-10-19T17:47:00.706Z,53.30
2022-10-19T17:49:31.362Z,53.40
2022-10-19T17:51:58.950Z,53.50
2022-10-19T17:54:27.680Z,53.80
2022-10-19T17:56:55.334Z,53.80
2022-10-19T17:59:34.974Z,53.70
2022-10-19T18:02:10.951Z,53.70
2022-10-19T18:04:38.806Z,53.80
2022-10-19T18:07:06.195Z,53.90
2022-10-19T18:09:33.484Z,54.00
2022-10-19T18:12:04.972Z,54.00
2022-10-19T18:14:44.727Z,54.00
2022-10-19T18:17:13.054Z,54.20
2022-10-19T18:19:40.484Z,54.40
2022-10-19T18:22:07.739Z,54.50
2022-10-19T18:24:35.527Z,54.40
2022-10-19T18:27:02.897Z,54.60
2022-10-19T18:29:33.250Z,54.70
2022-10-19T18:32:01.619Z,54.90
2022-10-19T18:34:29.296Z,55.20
2022-10-19T18:36:57.678Z,55.30
2022-10-19T18:39:25.063Z,55.50
2022-10-19T18:41:56.428Z,55.60
2022-10-19T18:44:27.218Z,55.90
2022-10-19T18:46:58.174Z,56.00
2022-10-19T18:49:28.226Z,56.30
2022-10-19T18:51:56.146Z,56.50
2022-10-19T18:54:32.646Z,57.10
2022-10-19T18:57:00.166Z,57.10
2022-10-19T19:02:00.970Z,57.40
2022-10-19T19:04:28.386Z,57.60
2022-10-19T19:06:55.744Z,57.60
2022-10-19T19:09:23.104Z,57.90
2022-10-19T19:11:54.220Z,57.90
2022-10-19T19:14:21.563Z,58.10
2022-10-19T19:16:49.103Z,58.40
2022-10-19T19:19:19.771Z,58.50
2022-10-19T19:21:50.604Z,58.30
2022-10-19T19:24:28.328Z,58.80
2022-10-19T19:26:57.968Z,58.90
2022-10-19T19:29:25.650Z,59.50
2022-10-19T19:31:53.600Z,59.80
2022-10-19T19:34:22.541Z,60.60
2022-10-19T19:36:50.212Z,61.20
2022-10-19T19:39:20.906Z,61.00
2022-10-19T19:41:50.077Z,61.50
2022-10-19T19:44:18.467Z,61.60
2022-10-19T19:47:09.722Z,62.40
2022-10-19T19:49:38.006Z,62.30
2022-10-19T19:52:08.844Z,62.80
2022-10-19T19:54:36.539Z,63.20
2022-10-19T19:57:06.134Z,63.20
2022-10-19T19:59:33.490Z,63.10
2022-10-19T20:02:02.608Z,63.60
2022-10-19T20:04:30.165Z,64.00
2022-10-19T20:06:57.431Z,64.00
2022-10-19T20:09:27.123Z,64.30
2022-10-19T20:11:54.327Z,64.60
2022-10-19T20:14:21.845Z,64.60
2022-10-19T20:16:50.493Z,64.70
2022-10-19T20:19:17.893Z,64.90
2022-10-19T20:21:45.083Z,65.00
2022-10-19T20:24:12.616Z,65.30
2022-10-19T20:26:40.148Z,65.80
2022-10-19T20:29:08.465Z,66.00
2022-10-19T20:31:39.691Z,65.90
2022-10-19T20:34:10.789Z,66.30
2022-10-19T20:36:38.623Z,66.30
2022-10-19T20:39:07.326Z,67.10
2022-10-19T20:41:35.537Z,66.50
2022-10-19T20:44:02.862Z,66.70
2022-10-19T20:46:34.115Z,66.90
2022-10-19T20:49:02.563Z,67.60
2022-10-19T20:51:33.343Z,67.10
2022-10-19T20:54:03.958Z,67.30
2022-10-19T20:56:35.706Z,67.30
2022-10-19T20:59:14.465Z,67.50
2022-10-19T21:01:44.865Z,67.60
2022-10-19T21:04:14.633Z,67.70
2022-10-19T21:06:54.149Z,67.80
2022-10-19T21:09:23.784Z,68.40
2022-10-19T21:11:52.845Z,68.30
2022-10-19T21:14:27.206Z,68.70
2022-10-19T21:17:00.197Z,69.40
2022-10-19T21:19:29.636Z,69.20
2022-10-19T21:22:02.547Z,69.60
2022-10-19T21:24:34.306Z,69.10
2022-10-19T21:29:56.486Z,69.80
2022-10-19T21:32:23.710Z,70.10
2022-10-19T21:34:50.890Z,70.10
2022-10-19T21:37:18.560Z,70.20
2022-10-19T21:39:46.091Z,70.60
2022-10-19T21:42:13.272Z,71.10
2022-10-19T21:44:40.470Z,71.20
2022-10-19T21:47:08.065Z,71.10
2022-10-19T21:49:35.437Z,71.30
2022-10-19T21:52:02.700Z,71.50
2022-10-19T21:54:29.945Z,71.50
2022-10-19T21:56:58.564Z,72.90
2022-10-19T21:59:26.025Z,73.10
2022-10-19T22:01:55.293Z,73.20
2022-10-19T22:04:23.917Z,73.50
2022-10-19T22:06:51.127Z,73.90
2022-10-19T22:09:22.660Z,74.30
2022-10-19T22:11:50.066Z,74.20
2022-10-19T22:14:17.559Z,74.20
2022-10-19T22:16:45.179Z,74.30
2022-10-19T22:19:12.995Z,74.20
2022-10-19T22:21:41.533Z,74.50
2022-10-19T22:24:13.828Z,74.70
2022-10-19T22:26:46.136Z,75.60
2022-10-19T22:29:14.284Z,75.10
2022-10-19T22:31:41.711Z,75.20
2022-10-19T22:34:14.844Z,74.70
2022-10-19T22:36:43.323Z,74.90
2022-10-19T22:39:11.463Z,75.00
2022-10-19T22:42:22.472Z,75.30
2022-10-19T22:44:49.966Z,75.20
2022-10-19T22:47:18.140Z,75.80
2022-10-19T22:49:45.517Z,75.90
2022-10-19T22:52:15.541Z,75.90
2022-10-19T22:54:43.376Z,76.30
2022-10-19T22:57:11.915Z,76.00
2022-10-19T22:59:39.319Z,76.10
2022-10-19T23:02:07.835Z,76.80
2022-10-19T23:04:35.264Z,76.30
2022-10-19T23:07:02.673Z,76.80
2022-10-19T23:09:31.231Z,77.40
2022-10-19T23:11:58.498Z,78.10
2022-10-19T23:14:25.995Z,78.20
2022-10-19T23:16:53.386Z,77.80
2022-10-19T23:19:20.863Z,77.80
2022-10-19T23:21:48.639Z,78.00
2022-10-19T23:24:15.931Z,78.00
2022-10-19T23:26:43.461Z,78.40
2022-10-19T23:29:10.948Z,78.40
2022-10-19T23:31:38.396Z,78.80
2022-10-19T23:34:06.784Z,78.90
2022-10-19T23:36:34.092Z,78.60
2022-10-19T23:39:01.609Z,79.20
2022-10-19T23:41:29.684Z,78.90
2022-10-19T23:43:57.167Z,78.90
2022-10-19T23:46:24.509Z,78.60
2022-10-19T23:48:51.691Z,78.80
2022-10-19T23:51:21.824Z,78.80
2022-10-19T23:53:53.277Z,79.00
2022-10-19T23:56:25.204Z,79.30
2022-10-19T23:58:53.927Z,79.40
